createdAt,value
2017-02-13T00:00:20.973Z,-0.3
2017-02-13T00:01:27.077Z,-0.39
2017-02-13T00:02:32.201Z,-0.36
2017-02-13T00:03:37.324Z,-0.26
2017-02-13T00:04:43.419Z,-0.34
2017-02-13T00:05:49.508Z,-0.23
2017-02-13T00:06:54.683Z,-0.34
2017-02-13T00:07:58.813Z,-0.31
2017-02-13T00:09:04.904Z,-0.3
2017-02-13T00:10:09.043Z,-0.31
2017-02-13T00:11:14.237Z,-0.26
2017-02-13T00:12:20.329Z,-0.29
2017-02-13T00:13:23.531Z,-0.27
2017-02-13T00:14:28.639Z,-0.3
2017-02-13T00:15:33.769Z,-0.3
2017-02-13T00:16:39.875Z,-0.3
2017-02-13T00:17:45.972Z,-0.26
2017-02-13T00:18:51.073Z,-0.26
2017-02-13T00:19:57.167Z,-0.29
2017-02-13T00:21:03.261Z,-0.19
2017-02-13T00:22:09.395Z,-0.24
2017-02-13T00:23:15.485Z,-0.23
2017-02-13T00:24:20.657Z,-0.3
2017-02-13T00:25:24.801Z,-0.24
2017-02-13T00:26:30.896Z,-0.18
2017-02-13T00:27:36.999Z,-0.24
2017-02-13T00:28:42.118Z,-0.27
2017-02-13T00:29:47.235Z,-0.27
2017-02-13T00:30:53.325Z,-0.26
2017-02-13T00:31:58.449Z,-0.29
2017-02-13T00:33:04.589Z,-0.26
2017-02-13T00:34:10.648Z,-0.19
2017-02-13T00:35:16.742Z,-0.26
2017-02-13T00:36:22.848Z,-0.3
2017-02-13T00:37:28.935Z,-0.3
2017-02-13T00:38:33.095Z,-0.24
2017-02-13T00:39:39.195Z,-0.3
2017-02-13T00:40:43.338Z,-0.29
2017-02-13T00:41:48.463Z,-0.33
2017-02-13T00:42:53.553Z,-0.29
2017-02-13T00:43:59.650Z,-0.3
2017-02-13T00:45:05.732Z,-0.31
2017-02-13T00:46:11.849Z,-0.24
2017-02-13T00:47:16.949Z,-0.24
2017-02-13T00:48:22.071Z,-0.3
2017-02-13T00:49:28.161Z,-0.23
2017-02-13T00:50:33.265Z,-0.29
2017-02-13T00:51:37.425Z,-0.24
2017-02-13T00:52:38.647Z,-0.22
2017-02-13T00:53:43.745Z,-0.26
2017-02-13T00:54:48.858Z,-0.18
2017-02-13T00:55:54.109Z,-0.19
2017-02-13T00:57:00.219Z,-0.19
2017-02-13T00:58:06.282Z,-0.13
2017-02-13T00:59:11.408Z,-0.15
2017-02-13T01:00:16.521Z,-0.12
2017-02-13T01:01:21.661Z,-0.24
2017-02-13T01:02:27.754Z,-0.22
2017-02-13T01:03:33.844Z,-0.19
2017-02-13T01:04:38.976Z,-0.24
2017-02-13T01:05:44.104Z,-0.23
2017-02-13T01:06:50.189Z,-0.24
2017-02-13T01:07:55.311Z,-0.18
2017-02-13T01:09:00.425Z,-0.22
2017-02-13T01:10:03.589Z,-0.23
2017-02-13T01:11:08.730Z,-0.26
2017-02-13T01:12:14.835Z,-0.19
2017-02-13T01:13:19.959Z,-0.15
2017-02-13T01:14:25.078Z,-0.22
2017-02-13T01:15:30.200Z,-0.27
2017-02-13T01:16:35.328Z,-0.26
2017-02-13T01:17:40.448Z,-0.13
2017-02-13T01:18:46.532Z,-0.23
2017-02-13T01:19:52.621Z,-0.29
2017-02-13T01:20:57.743Z,-0.26
2017-02-13T01:22:01.890Z,-0.26
2017-02-13T01:23:06.011Z,-0.27
2017-02-13T01:24:10.140Z,-0.27
2017-02-13T01:25:15.261Z,-0.3
2017-02-13T01:26:19.388Z,-0.26
2017-02-13T01:27:24.561Z,-0.24
2017-02-13T01:28:30.640Z,-0.18
2017-02-13T01:29:36.744Z,-0.22
2017-02-13T01:30:41.869Z,-0.26
2017-02-13T01:31:46.975Z,-0.26
2017-02-13T01:32:52.061Z,-0.22
2017-02-13T01:33:57.309Z,-0.22
2017-02-13T01:35:03.389Z,-0.26
2017-02-13T01:36:09.473Z,-0.22
2017-02-13T01:37:15.565Z,-0.19
2017-02-13T01:38:21.643Z,-0.3
2017-02-13T01:39:27.739Z,-0.33
2017-02-13T01:40:33.823Z,-0.39
2017-02-13T01:41:39.914Z,-0.33
2017-02-13T01:42:46.065Z,-0.33
2017-02-13T01:43:52.163Z,-0.37
2017-02-13T01:44:57.291Z,-0.24
2017-02-13T01:46:03.381Z,-0.23
2017-02-13T01:47:08.528Z,-0.23
2017-02-13T01:48:14.595Z,-0.31
2017-02-13T01:49:20.687Z,-0.34
2017-02-13T01:50:26.768Z,-0.39
2017-02-13T01:51:31.905Z,-0.36
2017-02-13T01:52:37.040Z,-0.29
2017-02-13T01:53:43.139Z,-0.36
2017-02-13T01:54:49.227Z,-0.34
2017-02-13T01:55:55.360Z,-0.36
2017-02-13T01:57:01.420Z,-0.31
2017-02-13T01:58:07.504Z,-0.39
2017-02-13T01:59:12.623Z,-0.37
2017-02-13T02:00:18.722Z,-0.29
2017-02-13T02:01:23.839Z,-0.34
2017-02-13T02:02:28.958Z,-0.36
2017-02-13T02:03:33.079Z,-0.29
2017-02-13T02:04:38.238Z,-0.34
2017-02-13T02:05:43.359Z,-0.29
2017-02-13T02:06:48.538Z,-0.31
2017-02-13T02:07:53.663Z,-0.31
2017-02-13T02:08:59.749Z,-0.33
2017-02-13T02:10:05.843Z,-0.36
2017-02-13T02:11:11.003Z,-0.42
2017-02-13T02:12:17.099Z,-0.31
2017-02-13T02:13:23.191Z,-0.41
2017-02-13T02:14:28.289Z,-0.37
2017-02-13T02:15:34.375Z,-0.29
2017-02-13T02:16:40.572Z,-0.33
2017-02-13T02:17:46.661Z,-0.36
2017-02-13T02:18:52.739Z,-0.36
2017-02-13T02:19:58.830Z,-0.34
2017-02-13T02:21:04.916Z,-0.36
2017-02-13T02:22:11.005Z,-0.33
2017-02-13T02:23:16.129Z,-0.24
2017-02-13T02:24:21.230Z,-0.24
2017-02-13T02:25:26.350Z,-0.24
2017-02-13T02:26:32.449Z,-0.29
2017-02-13T02:27:35.609Z,-0.36
2017-02-13T02:28:38.766Z,-0.41
2017-02-13T02:29:44.861Z,-0.39
2017-02-13T02:30:50.035Z,-0.42
2017-02-13T02:31:56.124Z,-0.42
2017-02-13T02:33:01.241Z,-0.34
2017-02-13T02:34:05.362Z,-0.34
2017-02-13T02:35:09.493Z,-0.41
2017-02-13T02:36:15.626Z,-0.31
2017-02-13T02:37:19.767Z,-0.27
2017-02-13T02:38:23.892Z,-0.42
2017-02-13T02:39:30.040Z,-0.42
2017-02-13T02:40:36.137Z,-0.39
2017-02-13T02:41:42.220Z,-0.39
2017-02-13T02:42:47.327Z,-0.36
2017-02-13T02:43:53.408Z,-0.47
2017-02-13T02:44:59.497Z,-0.52
2017-02-13T02:46:03.732Z,-0.48
2017-02-13T02:47:08.822Z,-0.5
2017-02-13T02:48:13.946Z,-0.48
2017-02-13T02:49:20.034Z,-0.54
2017-02-13T02:50:26.122Z,-0.37
2017-02-13T02:51:32.210Z,-0.36
2017-02-13T02:52:38.378Z,-0.33
2017-02-13T02:53:43.484Z,-0.39
2017-02-13T02:54:48.612Z,-0.48
2017-02-13T02:55:53.726Z,-0.41
2017-02-13T02:56:59.816Z,-0.37
2017-02-13T02:58:03.969Z,-0.39
2017-02-13T02:59:08.092Z,-0.33
2017-02-13T03:00:14.174Z,-0.41
2017-02-13T03:01:20.291Z,-0.41
2017-02-13T03:02:26.341Z,-0.42
2017-02-13T03:03:31.462Z,-0.5
2017-02-13T03:04:37.556Z,-0.45
2017-02-13T03:05:43.649Z,-0.34
2017-02-13T03:06:49.744Z,-0.42
2017-02-13T03:07:55.833Z,-0.37
2017-02-13T03:09:01.036Z,-0.39
2017-02-13T03:10:06.195Z,-0.44
2017-02-13T03:11:11.302Z,-0.34
2017-02-13T03:12:16.429Z,-0.34
2017-02-13T03:13:22.526Z,-0.5
2017-02-13T03:14:28.623Z,-0.45
2017-02-13T03:15:32.740Z,-0.45
2017-02-13T03:16:37.860Z,-0.47
2017-02-13T03:17:42.953Z,-0.54
2017-02-13T03:18:47.109Z,-0.54
2017-02-13T03:19:53.200Z,-0.47
2017-02-13T03:20:58.349Z,-0.54
2017-02-13T03:22:03.443Z,-0.5
2017-02-13T03:23:08.557Z,-0.45
2017-02-13T03:24:12.673Z,-0.51
2017-02-13T03:25:17.786Z,-0.48
2017-02-13T03:26:23.888Z,-0.52
2017-02-13T03:27:30.013Z,-0.52
2017-02-13T03:28:35.102Z,-0.55
2017-02-13T03:29:40.232Z,-0.44
2017-02-13T03:30:46.316Z,-0.39
2017-02-13T03:31:52.437Z,-0.55
2017-02-13T03:32:57.565Z,-0.47
2017-02-13T03:34:00.734Z,-0.59
2017-02-13T03:35:06.812Z,-0.47
2017-02-13T03:36:10.940Z,-0.59
2017-02-13T03:37:17.035Z,-0.69
2017-02-13T03:38:23.123Z,-0.57
2017-02-13T03:39:29.205Z,-0.55
2017-02-13T03:40:33.376Z,-0.6
2017-02-13T03:41:39.539Z,-0.51
2017-02-13T03:42:44.663Z,-0.5
2017-02-13T03:43:50.751Z,-0.55
2017-02-13T03:44:56.887Z,-0.55
2017-02-13T03:46:02.971Z,-0.6
2017-02-13T03:47:07.127Z,-0.5
2017-02-13T03:48:13.213Z,-0.52
2017-02-13T03:49:19.319Z,-0.39
2017-02-13T03:50:23.466Z,-0.44
2017-02-13T03:51:27.622Z,-0.55
2017-02-13T03:52:32.743Z,-0.54
2017-02-13T03:53:36.900Z,-0.5
2017-02-13T03:54:42.986Z,-0.55
2017-02-13T03:55:48.117Z,-0.45
2017-02-13T03:56:52.248Z,-0.48
2017-02-13T03:57:57.411Z,-0.51
2017-02-13T03:59:03.497Z,-0.52
2017-02-13T04:00:08.613Z,-0.54
2017-02-13T04:01:12.777Z,-0.57
2017-02-13T04:02:16.923Z,-0.54
2017-02-13T04:03:21.078Z,-0.51
2017-02-13T04:04:26.188Z,-0.5
2017-02-13T04:05:31.318Z,-0.39
2017-02-13T04:06:37.409Z,-0.33
2017-02-13T04:07:41.537Z,-0.41
2017-02-13T04:08:47.624Z,-0.39
2017-02-13T04:09:52.742Z,-0.39
2017-02-13T04:10:57.842Z,-0.34
2017-02-13T04:12:02.958Z,-0.42
2017-02-13T04:13:07.142Z,-0.29
2017-02-13T04:14:13.226Z,-0.34
2017-02-13T04:15:17.378Z,-0.33
2017-02-13T04:16:22.492Z,-0.41
2017-02-13T04:17:27.585Z,-0.3
2017-02-13T04:18:32.690Z,-0.34
2017-02-13T04:19:37.806Z,-0.37
2017-02-13T04:20:43.897Z,-0.41
2017-02-13T04:21:49.023Z,-0.44
2017-02-13T04:22:55.105Z,-0.36
2017-02-13T04:24:01.207Z,-0.41
2017-02-13T04:25:07.331Z,-0.33
2017-02-13T04:26:12.473Z,-0.29
2017-02-13T04:27:17.583Z,-0.27
2017-02-13T04:28:20.754Z,-0.23
2017-02-13T04:29:25.848Z,-0.23
2017-02-13T04:30:29.967Z,-0.26
2017-02-13T04:31:34.093Z,-0.34
2017-02-13T04:32:37.378Z,-0.33
2017-02-13T04:33:43.467Z,-0.26
2017-02-13T04:34:49.565Z,-0.19
2017-02-13T04:35:55.651Z,-0.23
2017-02-13T04:37:01.749Z,-0.22
2017-02-13T04:38:05.874Z,-0.22
2017-02-13T04:39:11.964Z,-0.22
2017-02-13T04:40:18.059Z,-0.22
2017-02-13T04:41:24.219Z,-0.23
2017-02-13T04:42:29.300Z,-0.24
2017-02-13T04:43:33.447Z,-0.34
2017-02-13T04:44:38.567Z,-0.3
2017-02-13T04:45:44.757Z,-0.34
2017-02-13T04:46:49.881Z,-0.33
2017-02-13T04:47:54.978Z,-0.34
2017-02-13T04:49:01.062Z,-0.3
2017-02-13T04:50:06.189Z,-0.26
2017-02-13T04:51:12.269Z,-0.22
2017-02-13T04:52:17.496Z,-0.24
2017-02-13T04:53:22.621Z,-0.26
2017-02-13T04:54:26.745Z,-0.37
2017-02-13T04:55:31.850Z,-0.31
2017-02-13T04:56:37.935Z,-0.24
2017-02-13T04:57:43.067Z,-0.31
2017-02-13T04:58:48.181Z,-0.31
2017-02-13T04:59:52.361Z,-0.29
2017-02-13T05:00:57.480Z,-0.31
2017-02-13T05:02:01.614Z,-0.3
2017-02-13T05:03:05.759Z,-0.33
2017-02-13T05:04:10.877Z,-0.42
2017-02-13T05:05:15.999Z,-0.44
2017-02-13T05:06:20.156Z,-0.44
2017-02-13T05:07:26.265Z,-0.33
2017-02-13T05:08:32.337Z,-0.39
2017-02-13T05:09:37.457Z,-0.41
2017-02-13T05:10:41.590Z,-0.39
2017-02-13T05:11:46.814Z,-0.41
2017-02-13T05:12:51.900Z,-0.47
2017-02-13T05:13:56.023Z,-0.51
2017-02-13T05:15:02.121Z,-0.48
2017-02-13T05:16:06.243Z,-0.44
2017-02-13T05:17:11.424Z,-0.42
2017-02-13T05:18:16.513Z,-0.44
2017-02-13T05:19:21.636Z,-0.5
2017-02-13T05:20:26.776Z,-0.51
2017-02-13T05:21:30.930Z,-0.41
2017-02-13T05:22:37.028Z,-0.34
2017-02-13T05:23:43.112Z,-0.33
2017-02-13T05:24:49.204Z,-0.34
2017-02-13T05:25:55.300Z,-0.37
2017-02-13T05:27:00.432Z,-0.36
2017-02-13T05:28:05.542Z,-0.33
2017-02-13T05:29:10.685Z,-0.3
2017-02-13T05:30:13.826Z,-0.31
2017-02-13T05:31:19.916Z,-0.29
2017-02-13T05:32:26.046Z,-0.36
2017-02-13T05:33:31.184Z,-0.3
2017-02-13T05:34:37.267Z,-0.33
2017-02-13T05:35:41.391Z,-0.34
2017-02-13T05:36:46.510Z,-0.27
2017-02-13T05:37:52.705Z,-0.33
2017-02-13T05:38:57.829Z,-0.37
2017-02-13T05:40:02.963Z,-0.33
2017-02-13T05:41:07.112Z,-0.31
2017-02-13T05:42:13.197Z,-0.27
2017-02-13T05:43:19.267Z,-0.24
2017-02-13T05:44:24.480Z,-0.37
2017-02-13T05:45:29.565Z,-0.36
2017-02-13T05:46:33.701Z,-0.29
2017-02-13T05:47:38.801Z,-0.36
2017-02-13T05:48:44.888Z,-0.41
2017-02-13T05:49:49.044Z,-0.34
2017-02-13T05:50:54.175Z,-0.34
2017-02-13T05:52:00.264Z,-0.34
2017-02-13T05:53:05.377Z,-0.31
2017-02-13T05:54:10.478Z,-0.33
2017-02-13T05:55:16.610Z,-0.29
2017-02-13T05:56:21.788Z,-0.27
2017-02-13T05:57:27.957Z,-0.34
2017-02-13T05:58:33.089Z,-0.27
2017-02-13T05:59:38.186Z,-0.34
2017-02-13T06:00:44.284Z,-0.42
2017-02-13T06:01:48.434Z,-0.41
2017-02-13T06:02:54.520Z,-0.41
2017-02-13T06:03:59.644Z,-0.29
2017-02-13T06:05:04.760Z,-0.26
2017-02-13T06:06:10.858Z,-0.29
2017-02-13T06:07:15.986Z,-0.33
2017-02-13T06:08:21.114Z,-0.27
2017-02-13T06:09:26.253Z,-0.29
2017-02-13T06:10:31.345Z,-0.23
2017-02-13T06:11:36.442Z,-0.33
2017-02-13T06:12:41.533Z,-0.34
2017-02-13T06:13:46.656Z,-0.36
2017-02-13T06:14:51.780Z,-0.3
2017-02-13T06:15:54.937Z,-0.33
2017-02-13T06:17:01.021Z,-0.34
2017-02-13T06:18:07.125Z,-0.33
2017-02-13T06:19:13.230Z,-0.36
2017-02-13T06:20:18.354Z,-0.3
2017-02-13T06:21:23.474Z,-0.33
2017-02-13T06:22:29.564Z,-0.27
2017-02-13T06:23:34.651Z,-0.3
2017-02-13T06:24:39.764Z,-0.31
2017-02-13T06:25:44.905Z,-0.26
2017-02-13T06:26:50.029Z,-0.19
2017-02-13T06:27:56.119Z,-0.13
2017-02-13T06:29:01.249Z,-0.18
2017-02-13T06:30:06.376Z,-0.08
2017-02-13T06:31:12.460Z,-0.11
2017-02-13T06:32:18.551Z,-0.12
2017-02-13T06:33:23.684Z,-0.15
2017-02-13T06:34:28.796Z,-0.13
2017-02-13T06:35:34.891Z,-0.12
2017-02-13T06:36:39.975Z,-0.09
2017-02-13T06:37:44.132Z,-0.11
2017-02-13T06:38:48.305Z,-0.19
2017-02-13T06:39:53.430Z,-0.22
2017-02-13T06:40:59.519Z,-0.16
2017-02-13T06:42:05.612Z,-0.13
2017-02-13T06:43:11.701Z,-0.09
2017-02-13T06:44:17.797Z,-0.16
2017-02-13T06:45:22.918Z,-0.09
2017-02-13T06:46:28.012Z,-0.11
2017-02-13T06:47:34.143Z,-0.12
2017-02-13T06:48:38.275Z,-0.09
2017-02-13T06:49:43.389Z,-0.16
2017-02-13T06:50:48.619Z,-0.16
2017-02-13T06:51:54.712Z,-0.11
2017-02-13T06:52:59.839Z,-0.09
2017-02-13T06:54:04.973Z,-0.11
2017-02-13T06:55:11.047Z,-0.12
2017-02-13T06:56:16.166Z,-0.19
2017-02-13T06:57:21.307Z,-0.22
2017-02-13T06:58:27.388Z,-0.26
2017-02-13T06:59:33.540Z,-0.23
2017-02-13T07:00:39.643Z,-0.27
2017-02-13T07:01:44.741Z,-0.23
2017-02-13T07:02:50.822Z,-0.22
2017-02-13T07:03:56.921Z,-0.19
2017-02-13T07:05:02.053Z,-0.23
2017-02-13T07:06:06.198Z,-0.23
2017-02-13T07:07:12.300Z,-0.22
2017-02-13T07:08:17.424Z,-0.09
2017-02-13T07:09:23.515Z,-0.04
2017-02-13T07:10:28.700Z,-0.15
2017-02-13T07:11:33.794Z,-0.06
2017-02-13T07:12:38.977Z,-0.01
2017-02-13T07:13:44.101Z,-0.06
2017-02-13T07:14:50.183Z,0.06
2017-02-13T07:15:56.273Z,0.02
2017-02-13T07:17:02.361Z,0.07
2017-02-13T07:18:07.488Z,0.1
2017-02-13T07:19:12.609Z,0.12
2017-02-13T07:20:18.719Z,0.21
2017-02-13T07:21:24.854Z,0.24
2017-02-13T07:22:29.988Z,0.28
2017-02-13T07:23:35.083Z,0.31
2017-02-13T07:24:40.207Z,0.31
2017-02-13T07:25:46.301Z,0.43
2017-02-13T07:26:52.395Z,0.58
2017-02-13T07:27:57.544Z,0.72
2017-02-13T07:29:01.739Z,0.96
2017-02-13T07:30:07.809Z,1.19
2017-02-13T07:31:13.897Z,1.64
2017-02-13T07:32:19.989Z,1.87
2017-02-13T07:33:25.144Z,2.06
2017-02-13T07:34:30.242Z,2.46
2017-02-13T07:35:35.359Z,2.55
2017-02-13T07:36:40.472Z,2.73
2017-02-13T07:37:46.559Z,2.89
2017-02-13T07:38:50.723Z,3.09
2017-02-13T07:39:55.845Z,3.2
2017-02-13T07:41:01.932Z,3.42
2017-02-13T07:42:07.030Z,3.7
2017-02-13T07:43:11.159Z,3.8
2017-02-13T07:44:17.244Z,3.92
2017-02-13T07:45:22.375Z,4.1
2017-02-13T07:46:28.575Z,4.18
2017-02-13T07:47:33.713Z,4.32
2017-02-13T07:48:38.834Z,4.4
2017-02-13T07:49:44.954Z,4.57
2017-02-13T07:50:51.034Z,4.72
2017-02-13T07:51:55.191Z,4.83
2017-02-13T07:53:01.286Z,5.1
2017-02-13T07:54:04.477Z,5.2
2017-02-13T07:55:08.709Z,5.17
2017-02-13T07:56:13.936Z,5.5
2017-02-13T07:57:19.041Z,5.45
2017-02-13T07:58:25.138Z,5.49
2017-02-13T07:59:30.238Z,5.63
2017-02-13T08:00:36.338Z,5.57
2017-02-13T08:01:41.467Z,5.74
2017-02-13T08:02:46.573Z,5.6
2017-02-13T08:03:50.731Z,5.81
2017-02-13T08:04:55.875Z,5.95
2017-02-13T08:06:01.025Z,6.29
2017-02-13T08:07:07.117Z,6.58
2017-02-13T08:08:10.308Z,6.43
2017-02-13T08:09:14.469Z,6.58
2017-02-13T08:10:18.603Z,6.71
2017-02-13T08:11:24.704Z,6.79
2017-02-13T08:12:28.818Z,6.86
2017-02-13T08:13:32.979Z,6.94
2017-02-13T08:14:39.078Z,7.12
2017-02-13T08:15:45.174Z,7.07
2017-02-13T08:16:51.273Z,7.02
2017-02-13T08:17:54.465Z,7.08
2017-02-13T08:18:58.631Z,6.73
2017-02-13T08:20:04.867Z,6.72
2017-02-13T08:21:10.966Z,6.83
2017-02-13T08:22:17.057Z,6.8
2017-02-13T08:23:22.159Z,7.04
2017-02-13T08:24:28.293Z,7.38
2017-02-13T08:25:34.371Z,7.55
2017-02-13T08:26:40.467Z,7.59
2017-02-13T08:27:46.569Z,7.53
2017-02-13T08:28:50.704Z,7.62
2017-02-13T08:29:56.807Z,7.35
2017-02-13T08:31:02.905Z,7.2
2017-02-13T08:32:09.000Z,7.41
2017-02-13T08:33:14.105Z,7.71
2017-02-13T08:34:20.208Z,7.97
2017-02-13T08:35:26.303Z,8.03
2017-02-13T08:36:31.433Z,8.02
2017-02-13T08:37:37.561Z,8.11
2017-02-13T08:38:43.672Z,8.4
2017-02-13T08:39:49.770Z,8.39
2017-02-13T08:40:54.874Z,8.4
2017-02-13T08:41:59.984Z,8.33
2017-02-13T08:43:06.102Z,8.36
2017-02-13T08:44:12.211Z,8.18
2017-02-13T08:45:18.314Z,8.33
2017-02-13T08:46:23.441Z,8.51
2017-02-13T08:47:27.580Z,8.62
2017-02-13T08:48:33.900Z,8.45
2017-02-13T08:49:40.055Z,8.73
2017-02-13T08:50:46.152Z,8.91
2017-02-13T08:51:51.277Z,8.83
2017-02-13T08:52:56.412Z,8.47
2017-02-13T08:54:00.575Z,8.51
2017-02-13T08:55:06.670Z,8.37
2017-02-13T08:56:12.780Z,8.54
2017-02-13T08:57:18.887Z,8.35
2017-02-13T08:58:24.017Z,8.58
2017-02-13T08:59:29.169Z,9.04
2017-02-13T09:00:33.370Z,9.24
2017-02-13T09:01:39.496Z,9.5
2017-02-13T09:02:44.636Z,9.63
2017-02-13T09:03:50.743Z,9.66
2017-02-13T09:04:55.883Z,9.67
2017-02-13T09:06:01.987Z,9.52
2017-02-13T09:07:07.122Z,9.57
2017-02-13T09:08:12.336Z,9.5
2017-02-13T09:09:18.431Z,8.83
2017-02-13T09:10:23.579Z,8.53
2017-02-13T09:11:29.682Z,8.22
2017-02-13T09:12:34.815Z,8.53
2017-02-13T09:13:40.929Z,8.93
2017-02-13T09:14:47.021Z,9.43
2017-02-13T09:15:52.229Z,9.56
2017-02-13T09:16:57.361Z,9.56
2017-02-13T09:18:02.499Z,9.97
2017-02-13T09:19:08.605Z,10.09
2017-02-13T09:20:13.802Z,10.32
2017-02-13T09:21:19.905Z,10.46
2017-02-13T09:22:25.057Z,10.74
2017-02-13T09:23:31.131Z,10.7
2017-02-13T09:24:37.234Z,10.58
2017-02-13T09:25:42.370Z,10.4
2017-02-13T09:26:47.497Z,10.28
2017-02-13T09:27:51.612Z,10.39
2017-02-13T09:28:55.780Z,10.43
2017-02-13T09:30:01.869Z,10.44
2017-02-13T09:31:07.007Z,9.96
2017-02-13T09:32:12.136Z,9.73
2017-02-13T09:33:17.266Z,9.61
2017-02-13T09:34:23.342Z,9.67
2017-02-13T09:35:28.482Z,9.85
2017-02-13T09:36:33.611Z,9.71
2017-02-13T09:37:39.710Z,9.88
2017-02-13T09:38:45.825Z,9.91
2017-02-13T09:39:49.962Z,10.1
2017-02-13T09:40:54.235Z,9.82
2017-02-13T09:42:00.359Z,9.63
2017-02-13T09:43:05.493Z,9.67
2017-02-13T09:44:11.596Z,9.57
2017-02-13T09:45:14.776Z,9.63
2017-02-13T09:46:18.902Z,9.61
2017-02-13T09:47:23.073Z,9.88
2017-02-13T09:48:29.167Z,10.1
2017-02-13T09:49:34.313Z,10.06
2017-02-13T09:50:38.478Z,10.03
2017-02-13T09:51:42.636Z,10.1
2017-02-13T09:52:47.797Z,10.43
2017-02-13T09:53:52.928Z,10.88
2017-02-13T09:54:58.067Z,11.32
2017-02-13T09:56:04.194Z,11.2
2017-02-13T09:57:07.347Z,10.96
2017-02-13T09:58:11.483Z,10.6
2017-02-13T09:59:16.620Z,10.52
2017-02-13T10:00:22.722Z,10.19
2017-02-13T10:01:27.871Z,10.21
2017-02-13T10:02:33.981Z,10.39
2017-02-13T10:03:38.119Z,10.56
2017-02-13T10:04:43.270Z,10.78
2017-02-13T10:05:49.397Z,10.83
2017-02-13T10:06:55.514Z,10.65
2017-02-13T10:07:59.688Z,10.7
2017-02-13T10:09:04.823Z,10.95
2017-02-13T10:10:10.955Z,10.73
2017-02-13T10:11:16.063Z,10.84
2017-02-13T10:12:22.163Z,11.02
2017-02-13T10:13:27.271Z,11.36
2017-02-13T10:14:32.443Z,11.53
2017-02-13T10:15:38.551Z,11.86
2017-02-13T10:16:43.691Z,11.96
2017-02-13T10:17:48.828Z,11.75
2017-02-13T10:18:52.994Z,12.11
2017-02-13T10:19:59.077Z,12.12
2017-02-13T10:21:04.214Z,11.86
2017-02-13T10:22:09.324Z,11.82
2017-02-13T10:23:14.454Z,12.16
2017-02-13T10:24:20.557Z,11.72
2017-02-13T10:25:25.771Z,11.77
2017-02-13T10:26:31.881Z,11.64
2017-02-13T10:27:37.996Z,11.31
2017-02-13T10:29:48.319Z,11.57
2017-02-13T10:30:54.481Z,11.85
2017-02-13T10:32:00.578Z,12.04
2017-02-13T10:33:06.685Z,12.3
2017-02-13T10:34:11.827Z,12.52
2017-02-13T10:35:16.976Z,12.78
2017-02-13T10:36:23.085Z,13.2
2017-02-13T10:37:29.180Z,13.29
2017-02-13T10:38:35.361Z,13.03
2017-02-13T10:39:40.469Z,12.59
2017-02-13T10:40:45.570Z,12.41
2017-02-13T10:41:51.681Z,12.39
2017-02-13T10:42:56.868Z,12.77
2017-02-13T10:44:02.008Z,12.92
2017-02-13T10:45:08.120Z,13.25
2017-02-13T10:46:14.221Z,13.18
2017-02-13T10:47:19.355Z,13.04
2017-02-13T10:48:24.612Z,13.15
2017-02-13T10:49:30.706Z,12.96
2017-02-13T10:50:35.844Z,12.6
2017-02-13T10:51:41.001Z,11.93
2017-02-13T10:52:46.108Z,11.65
2017-02-13T10:53:51.244Z,11.65
2017-02-13T10:54:57.349Z,11.38
2017-02-13T10:56:03.452Z,11.14
2017-02-13T10:57:08.612Z,11.19
2017-02-13T10:58:14.716Z,11.38
2017-02-13T10:59:20.824Z,11.5
2017-02-13T11:00:25.951Z,11.86
2017-02-13T11:01:31.085Z,12.09
2017-02-13T11:02:36.190Z,11.85
2017-02-13T11:03:40.342Z,11.75
2017-02-13T11:04:44.516Z,11.32
2017-02-13T11:05:49.667Z,11.01
2017-02-13T11:06:55.751Z,10.76
2017-02-13T11:08:01.862Z,10.42
2017-02-13T11:09:08.017Z,10.17
2017-02-13T11:10:14.192Z,9.99
2017-02-13T11:11:18.350Z,10.07
2017-02-13T11:12:23.448Z,10.07
2017-02-13T11:13:28.583Z,9.97
2017-02-13T11:14:32.757Z,10.04
2017-02-13T11:15:35.950Z,10.03
2017-02-13T11:16:42.056Z,9.73
2017-02-13T11:17:48.150Z,9.52
2017-02-13T11:18:53.297Z,9.13
2017-02-13T11:19:58.433Z,8.87
2017-02-13T11:21:02.710Z,8.68
2017-02-13T11:22:07.832Z,8.35
2017-02-13T11:23:13.940Z,8.3
2017-02-13T11:24:20.041Z,8.28
2017-02-13T11:25:24.178Z,8.14
2017-02-13T11:26:29.307Z,8.18
2017-02-13T11:27:34.440Z,8.1
2017-02-13T11:28:40.548Z,8.03
2017-02-13T11:29:44.729Z,8.04
2017-02-13T11:30:49.865Z,8.11
2017-02-13T11:31:55.965Z,7.94
2017-02-13T11:33:02.072Z,7.85
2017-02-13T11:34:07.200Z,7.84
2017-02-13T11:35:13.308Z,7.72
2017-02-13T11:36:18.434Z,7.55
2017-02-13T11:37:24.537Z,7.62
2017-02-13T11:38:29.658Z,7.66
2017-02-13T11:39:34.767Z,7.6
2017-02-13T11:40:40.854Z,7.49
2017-02-13T11:41:45.011Z,7.47
2017-02-13T11:42:50.142Z,7.42
2017-02-13T11:43:56.240Z,7.45
2017-02-13T11:45:00.399Z,7.49
2017-02-13T11:46:05.494Z,7.59
2017-02-13T11:47:10.596Z,7.58
2017-02-13T11:48:15.719Z,7.49
2017-02-13T11:49:21.830Z,7.52
2017-02-13T11:50:27.931Z,7.37
2017-02-13T11:51:32.065Z,7.41
2017-02-13T11:52:37.194Z,7.45
2017-02-13T11:53:43.293Z,7.42
2017-02-13T11:54:48.409Z,7.41
2017-02-13T11:55:52.573Z,7.5
2017-02-13T11:56:58.670Z,7.47
2017-02-13T11:58:03.779Z,7.58
2017-02-13T11:59:08.901Z,7.55
2017-02-13T12:00:15.001Z,7.67
2017-02-13T12:01:20.131Z,7.59
2017-02-13T12:02:25.226Z,7.67
2017-02-13T12:03:30.359Z,7.71
2017-02-13T12:04:36.459Z,7.71
2017-02-13T12:05:40.616Z,7.74
2017-02-13T12:06:46.721Z,7.71
2017-02-13T12:07:52.825Z,7.77
2017-02-13T12:08:58.913Z,7.77
2017-02-13T12:10:05.013Z,7.79
2017-02-13T12:11:11.111Z,7.81
2017-02-13T12:12:17.206Z,7.89
2017-02-13T12:13:23.332Z,7.89
2017-02-13T12:14:27.434Z,7.99
2017-02-13T12:15:32.622Z,8.08
2017-02-13T12:16:37.761Z,7.96
2017-02-13T12:17:43.856Z,8.02
2017-02-13T12:18:48.953Z,7.99
2017-02-13T12:19:54.081Z,8.03
2017-02-13T12:20:59.189Z,8
2017-02-13T12:22:04.311Z,7.97
2017-02-13T12:23:09.439Z,7.97
2017-02-13T12:24:14.569Z,7.94
2017-02-13T12:25:18.700Z,8.02
2017-02-13T12:26:24.817Z,8.07
2017-02-13T12:27:29.950Z,8.07
2017-02-13T12:28:36.050Z,8.03
2017-02-13T12:29:40.203Z,8.21
2017-02-13T12:30:45.304Z,8.17
2017-02-13T12:31:50.436Z,8.07
2017-02-13T12:32:54.621Z,8.07
2017-02-13T12:34:00.694Z,8.21
2017-02-13T12:35:05.816Z,8.11
2017-02-13T12:36:09.981Z,8.18
2017-02-13T12:37:15.111Z,8.18
2017-02-13T12:38:21.219Z,8.18
2017-02-13T12:39:26.386Z,8.18
2017-02-13T12:40:31.505Z,8.1
2017-02-13T12:41:37.657Z,8.14
2017-02-13T12:42:43.765Z,8.15
2017-02-13T12:43:49.865Z,8.2
2017-02-13T12:44:55.951Z,8.2
2017-02-13T12:46:02.023Z,8.15
2017-02-13T12:47:08.152Z,8.2
2017-02-13T12:48:14.252Z,8.2
2017-02-13T12:49:19.389Z,8.18
2017-02-13T12:50:25.487Z,8.14
2017-02-13T12:51:30.624Z,8.28
2017-02-13T12:52:36.774Z,8.21
2017-02-13T12:53:42.874Z,8.26
2017-02-13T12:54:48.005Z,8.25
2017-02-13T12:55:53.132Z,8.22
2017-02-13T12:56:57.266Z,8.21
2017-02-13T12:58:02.375Z,8.28
2017-02-13T12:59:07.504Z,8.29
2017-02-13T13:00:12.663Z,8.26
2017-02-13T13:01:18.768Z,8.32
2017-02-13T13:02:24.872Z,8.26
2017-02-13T13:03:30.010Z,8.3
2017-02-13T13:04:36.136Z,8.37
2017-02-13T13:05:42.210Z,8.33
2017-02-13T13:06:47.348Z,8.37
2017-02-13T13:07:52.474Z,8.3
2017-02-13T13:08:58.571Z,8.32
2017-02-13T13:10:02.717Z,8.29
2017-02-13T13:11:07.819Z,8.39
2017-02-13T13:12:12.940Z,8.36
2017-02-13T13:13:19.053Z,8.44
2017-02-13T13:14:25.150Z,8.37
2017-02-13T13:15:29.312Z,8.47
2017-02-13T13:16:34.456Z,8.36
2017-02-13T13:17:40.516Z,8.47
2017-02-13T13:18:44.646Z,8.44
2017-02-13T13:19:50.766Z,8.51
2017-02-13T13:20:56.842Z,8.48
2017-02-13T13:22:02.940Z,8.48
2017-02-13T13:24:13.194Z,8.47
2017-02-13T13:25:19.308Z,8.57
2017-02-13T13:26:24.414Z,8.54
2017-02-13T13:27:29.546Z,8.58
2017-02-13T13:28:35.644Z,8.66
2017-02-13T13:29:39.817Z,8.57
2017-02-13T13:30:44.035Z,8.71
2017-02-13T13:31:48.186Z,8.6
2017-02-13T13:32:53.313Z,8.57
2017-02-13T13:33:59.428Z,8.58
2017-02-13T13:35:05.542Z,8.66
2017-02-13T13:36:08.759Z,8.54
2017-02-13T13:37:14.821Z,8.62
2017-02-13T13:38:20.017Z,8.54
2017-02-13T13:39:24.188Z,8.6
2017-02-13T13:40:30.288Z,8.58
2017-02-13T13:41:35.423Z,8.66
2017-02-13T13:42:41.517Z,8.71
2017-02-13T13:43:46.644Z,8.63
2017-02-13T13:44:51.775Z,8.68
2017-02-13T13:45:56.912Z,8.72
2017-02-13T13:47:03.012Z,8.63
2017-02-13T13:48:09.117Z,8.68
2017-02-13T13:49:15.220Z,8.66
2017-02-13T13:50:20.335Z,8.75
2017-02-13T13:51:26.425Z,8.78
2017-02-13T13:52:32.541Z,8.76
2017-02-13T13:53:37.671Z,8.79
2017-02-13T13:54:42.796Z,8.79
2017-02-13T13:55:48.890Z,8.76
2017-02-13T13:56:54.011Z,8.76
2017-02-13T13:57:59.145Z,8.78
2017-02-13T13:59:05.237Z,8.72
2017-02-13T14:00:10.365Z,8.76
2017-02-13T14:01:15.469Z,8.86
2017-02-13T14:02:21.577Z,8.81
2017-02-13T14:03:26.712Z,8.83
2017-02-13T14:04:30.851Z,8.84
2017-02-13T14:05:36.941Z,8.87
2017-02-13T14:06:43.031Z,8.86
2017-02-13T14:07:47.196Z,8.76
2017-02-13T14:08:53.307Z,8.73
2017-02-13T14:09:59.404Z,8.83
2017-02-13T14:11:04.537Z,8.78
2017-02-13T14:12:10.635Z,8.73
2017-02-13T14:13:16.718Z,8.79
2017-02-13T14:14:21.849Z,8.86
2017-02-13T14:15:26.988Z,8.91
2017-02-13T14:16:33.099Z,8.84